KCRG/CRG METAR and TAF weather

Enter ICAO airport designator
Station Type Date Time Source
KCRG METAR 2022/09/28 19:53 UTC NOAA

KCRG 281953Z 04019G38KT 5SM -RA BR BKN013 OVC021 23/21 A2987 RMK AO2 PK WND 03038/1944 RAB00 SLP115 P0004 T02280211


Station Type Date Time Source
KCRG Decoded METAR 2022/09/28 19:53 UTC NOAA

JACKSONVILLE CRAIG MUN, FL, United States (KCRG) 30-20N 81-31W 13M
Sep 28, 2022 - 03:53 PM EDT / 2022.09.28 1953 UTC
Wind: from the NE (040 degrees) at 22 MPH (19 KT) gusting to 44 MPH (38 KT):0
Visibility: 5 mile(s):0
Sky conditions: overcast
Weather: light rain; mist
Precipitation last hour: 0.04 inches
Temperature: 73.0 F (22.8 C)
Dew Point: 70.0 F (21.1 C)
Relative Humidity: 90%
Pressure (altimeter): 29.87 in. Hg (1011 hPa)
ob: KCRG 281953Z 04019G38KT 5SM -RA BR BKN013 OVC021 23/21 A2987 RMK AO2 PK WND 03038/1944 RAB00 SLP115 P0004 T02280211
cycle: 20

Station Type Date Time Source
KCRG TAF 2022/09/28 18:46 UTC NOAA

TAF KCRG 281744Z 2818/2918 04015G29KT P6SM -RA BKN015 BKN025 OVC035
FM290000 07021G33KT 5SM SHRA BR BKN025 OVC040
FM291000 07030KT 6SM SHRA BR BKN025 OVC040
FM291500 06031G49KT 4SM SHRA BR BKN025 OVC040
FM291700 05024G38KT 3SM SHRA BR BKN035 WS013/04035KT

Example: see airport list